Time;durP1;ratioP1;P1;durP2;ratioP2;P2;SDS_P1;SDS_P2;PMS_P1;PMS_P2;Temp;Humidity;BMP_temperature;BMP_pressure;BME280_temperature;BME280_humidity;BME280_pressure;Samples;Min_cycle;Max_cycle;Signal;HPM_P1;HPM_P2
2023/04/09 00:00:07;;;;;;;;;76.75;60.50;;;;;;;;5035069;29;9526;-66
2023/04/09 00:02:43;;;;;;;;;77.20;59.60;;;;;;;;5050191;29;8920;-66
2023/04/09 00:05:37;;;;;;;;;72.60;56.40;;;;;;;;5053327;29;9629;-66
2023/04/09 00:08:08;;;;;;;;;68.20;54.00;;;;;;;;5067110;29;8809;-67
2023/04/09 00:10:58;;;;;;;;;78.80;59.00;;;;;;;;5050325;29;8782;-67
2023/04/09 00:13:47;;;;;;;;;69.80;57.20;;;;;;;;5052927;29;8817;-67
2023/04/09 00:16:19;;;;;;;;;70.60;57.00;;;;;;;;5066585;29;8817;-67
2023/04/09 00:18:50;;;;;;;;;65.60;53.80;;;;;;;;5066697;29;8830;-67
2023/04/09 00:21:21;;;;;;;;;66.00;54.60;;;;;;;;5034479;29;8801;-67
2023/04/09 00:23:52;;;;;;;;;69.20;55.80;;;;;;;;5065841;29;8801;-67
2023/04/09 00:26:23;;;;;;;;;69.40;55.80;;;;;;;;5034773;29;8797;-67
2023/04/09 00:28:54;;;;;;;;;44.60;42.60;;;;;;;;5034372;29;8809;-66
2023/04/09 00:31:25;;;;;;;;;65.60;54.80;;;;;;;;5049852;29;8794;-66
2023/04/09 00:33:56;;;;;;;;;67.75;55.75;;;;;;;;5066300;29;8845;-67
2023/04/09 00:36:27;;;;;;;;;92.60;67.00;;;;;;;;5049355;29;9846;-67
2023/04/09 00:38:58;;;;;;;;;88.00;68.20;;;;;;;;5018727;29;8906;-67
2023/04/09 00:41:29;;;;;;;;;64.00;52.00;;;;;;;;5049655;29;8845;-67
2023/04/09 00:44:00;;;;;;;;;78.40;62.80;;;;;;;;5049458;29;11544;-67
2023/04/09 00:46:51;;;;;;;;;73.00;58.40;;;;;;;;5036232;29;8802;-66
2023/04/09 00:49:25;;;;;;;;;77.40;57.60;;;;;;;;5049651;29;8932;-67
2023/04/09 00:51:56;;;;;;;;;71.80;57.20;;;;;;;;5020387;29;8901;-67
2023/04/09 00:54:27;;;;;;;;;79.80;62.80;;;;;;;;5066075;29;8948;-67
2023/04/09 00:56:59;;;;;;;;;83.60;64.00;;;;;;;;5049222;29;8880;-67
2023/04/09 00:59:30;;;;;;;;;78.20;61.00;;;;;;;;5034022;29;8834;-67
2023/04/09 01:02:01;;;;;;;;;86.40;69.00;;;;;;;;5049150;29;8813;-66
2023/04/09 01:04:33;;;;;;;;;80.75;63.25;;;;;;;;5049191;29;8837;-66
2023/04/09 01:07:06;;;;;;;;;78.40;62.40;;;;;;;;5064566;29;11521;-66
2023/04/09 01:09:56;;;;;;;;;78.80;63.40;;;;;;;;5048719;29;8818;-66
2023/04/09 01:12:32;;;;;;;;;90.60;68.40;;;;;;;;5033881;29;8816;-67
2023/04/09 01:15:06;;;;;;;;;74.60;60.80;;;;;;;;5065697;29;8840;-67
2023/04/09 01:18:05;;;;;;;;;72.60;61.00;;;;;;;;5035711;29;8818;-66
2023/04/09 01:20:42;;;;;;;;;65.80;55.60;;;;;;;;5049411;29;8789;-66
2023/04/09 01:23:49;;;;;;;;;73.00;60.20;;;;;;;;5048892;29;8911;-66
2023/04/09 01:26:38;;;;;;;;;67.40;56.00;;;;;;;;5024852;29;8809;-66
2023/04/09 01:29:30;;;;;;;;;66.20;54.00;;;;;;;;5045398;29;8823;-66
2023/04/09 01:32:02;;;;;;;;;54.60;46.00;;;;;;;;5033530;29;8813;-66
2023/04/09 01:34:33;;;;;;;;;56.20;48.40;;;;;;;;5033187;29;8805;-66
2023/04/09 01:37:23;;;;;;;;;67.60;55.80;;;;;;;;5064796;29;8856;-66
2023/04/09 01:39:54;;;;;;;;;65.00;54.40;;;;;;;;5048917;29;8869;-66
2023/04/09 01:42:25;;;;;;;;;60.20;51.80;;;;;;;;5048586;29;8790;-66
2023/04/09 01:44:56;;;;;;;;;65.40;53.00;;;;;;;;5063891;29;8822;-66
2023/04/09 01:47:28;;;;;;;;;63.60;52.20;;;;;;;;5048926;29;8804;-66
2023/04/09 01:50:00;;;;;;;;;62.00;52.00;;;;;;;;5048529;29;8790;-66
2023/04/09 01:52:31;;;;;;;;;53.20;47.00;;;;;;;;5048881;29;9663;-66
2023/04/09 01:55:02;;;;;;;;;64.80;52.40;;;;;;;;5032971;29;8814;-65
2023/04/09 01:57:33;;;;;;;;;67.40;53.40;;;;;;;;5064786;29;8817;-65
2023/04/09 02:00:08;;;;;;;;;67.20;56.20;;;;;;;;5063661;29;8790;-66
2023/04/09 02:02:55;;;;;;;;;59.40;50.60;;;;;;;;5034396;29;8781;-66
2023/04/09 02:05:30;;;;;;;;;43.60;36.60;;;;;;;;5065163;29;8801;-65
2023/04/09 02:08:06;;;;;;;;;63.00;53.00;;;;;;;;5079066;29;8794;-66
2023/04/09 02:10:38;;;;;;;;;61.20;50.20;;;;;;;;5048546;29;8782;-66
2023/04/09 02:13:13;;;;;;;;;67.40;55.00;;;;;;;;5032872;29;8790;-66
2023/04/09 02:16:03;;;;;;;;;63.20;52.40;;;;;;;;5050713;29;8865;-66
2023/04/09 02:18:34;;;;;;;;;67.80;52.80;;;;;;;;5048153;29;8789;-66
2023/04/09 02:21:06;;;;;;;;;62.60;52.00;;;;;;;;5047988;29;8814;-66
2023/04/09 02:23:36;;;;;;;;;68.20;57.00;;;;;;;;5048155;29;8810;-66
2023/04/09 02:26:08;;;;;;;;;75.40;56.80;;;;;;;;5046490;29;8927;-66
2023/04/09 02:28:39;;;;;;;;;66.60;55.00;;;;;;;;5048063;29;8810;-65
2023/04/09 02:31:10;;;;;;;;;74.40;59.20;;;;;;;;5048388;29;8826;-65
2023/04/09 02:33:41;;;;;;;;;67.20;52.40;;;;;;;;5048222;29;8956;-66
2023/04/09 02:36:12;;;;;;;;;63.00;51.20;;;;;;;;5048441;29;8834;-65
2023/04/09 02:39:02;;;;;;;;;65.40;49.20;;;;;;;;5050045;29;9593;-66
2023/04/09 02:41:34;;;;;;;;;64.60;53.80;;;;;;;;5032992;29;8895;-65
2023/04/09 02:44:05;;;;;;;;;69.20;55.80;;;;;;;;5032478;29;8924;-65
2023/04/09 02:46:37;;;;;;;;;62.60;49.80;;;;;;;;5047699;29;8802;-65
2023/04/09 02:49:08;;;;;;;;;67.20;50.20;;;;;;;;5051594;29;8797;-65
2023/04/09 02:51:39;;;;;;;;;51.00;46.50;;;;;;;;5067883;29;8873;-65
2023/04/09 02:54:10;;;;;;;;;49.25;44.50;;;;;;;;5051487;29;11551;-65
2023/04/09 02:56:41;;;;;;;;;48.00;43.00;;;;;;;;5068297;29;8859;-65
2023/04/09 02:59:12;;;;;;;;;56.00;47.00;;;;;;;;5035990;29;9498;-65
2023/04/09 03:01:43;;;;;;;;;47.20;43.60;;;;;;;;5067730;29;8847;-66
2023/04/09 03:04:14;;;;;;;;;46.20;43.20;;;;;;;;5050920;29;8813;-66
2023/04/09 03:06:45;;;;;;;;;37.20;36.20;;;;;;;;5051549;29;8833;-66
2023/04/09 03:09:16;;;;;;;;;37.75;36.75;;;;;;;;5068089;29;9532;-66
2023/04/09 03:11:47;;;;;;;;;23.20;19.80;;;;;;;;5020442;29;9567;-66
2023/04/09 03:14:18;;;;;;;;;32.00;31.20;;;;;;;;5067782;29;8821;-66
2023/04/09 03:16:49;;;;;;;;;30.00;27.80;;;;;;;;5051098;29;8814;-66
2023/04/09 03:19:21;;;;;;;;;27.20;27.20;;;;;;;;5035560;29;8817;-66
2023/04/09 03:21:52;;;;;;;;;24.00;24.00;;;;;;;;5051045;29;8790;-66
2023/04/09 03:24:41;;;;;;;;;30.20;28.00;;;;;;;;5037637;29;8833;-66
2023/04/09 03:27:12;;;;;;;;;25.80;25.80;;;;;;;;5035209;29;8828;-66
2023/04/09 03:29:43;;;;;;;;;38.40;33.00;;;;;;;;5035405;29;8818;-66
2023/04/09 03:32:14;;;;;;;;;35.40;35.40;;;;;;;;5035359;29;8812;-66
2023/04/09 03:34:45;;;;;;;;;30.25;30.25;;;;;;;;5044195;29;8819;-65
2023/04/09 03:37:17;;;;;;;;;36.20;34.80;;;;;;;;5069624;29;9036;-66
2023/04/09 03:39:48;;;;;;;;;44.00;40.20;;;;;;;;5039888;29;8804;-66
2023/04/09 03:42:19;;;;;;;;;34.00;32.60;;;;;;;;5067395;29;8797;-65
2023/04/09 03:44:53;;;;;;;;;46.80;43.40;;;;;;;;5034999;29;8889;-65
2023/04/09 03:47:39;;;;;;;;;42.40;40.20;;;;;;;;5050348;29;8805;-65
2023/04/09 03:50:10;;;;;;;;;44.20;41.40;;;;;;;;5050458;29;8848;-66
2023/04/09 03:52:52;;;;;;;;;54.40;43.00;;;;;;;;5035142;29;8782;-66
2023/04/09 03:55:23;;;;;;;;;51.20;44.40;;;;;;;;5019294;29;8798;-65
2023/04/09 03:57:55;;;;;;;;;46.60;41.80;;;;;;;;5034671;29;8810;-65
2023/04/09 04:00:32;;;;;;;;;44.20;40.60;;;;;;;;5050119;29;8968;-66
2023/04/09 04:03:38;;;;;;;;;59.80;48.40;;;;;;;;5056002;29;8805;-65
2023/04/09 04:06:27;;;;;;;;;78.20;59.20;;;;;;;;5050097;29;8802;-66
2023/04/09 04:09:16;;;;;;;;;71.20;58.20;;;;;;;;5030143;29;8785;-65
2023/04/09 04:11:55;;;;;;;;;79.20;61.60;;;;;;;;5066855;29;8805;-65
2023/04/09 04:14:30;;;;;;;;;83.20;67.40;;;;;;;;5049419;29;8860;-66
2023/04/09 04:17:09;;;;;;;;;87.80;68.80;;;;;;;;5049946;29;8842;-67
2023/04/09 04:19:41;;;;;;;;;87.00;69.20;;;;;;;;5050502;29;8825;-66
2023/04/09 04:22:12;;;;;;;;;80.00;64.60;;;;;;;;5066635;29;8832;-66
2023/04/09 04:24:47;;;;;;;;;72.20;57.60;;;;;;;;5049564;29;9587;-66
2023/04/09 04:27:23;;;;;;;;;70.80;56.20;;;;;;;;5049250;29;8825;-66
2023/04/09 04:29:57;;;;;;;;;77.80;57.80;;;;;;;;5049853;29;9587;-66
2023/04/09 04:32:41;;;;;;;;;72.20;58.20;;;;;;;;5036137;29;8834;-66
2023/04/09 04:35:15;;;;;;;;;76.00;58.80;;;;;;;;5046994;29;8970;-66
2023/04/09 04:37:48;;;;;;;;;68.60;55.40;;;;;;;;5049312;29;8818;-66
2023/04/09 04:40:19;;;;;;;;;84.80;66.20;;;;;;;;5019447;29;8932;-66
2023/04/09 04:42:53;;;;;;;;;64.80;53.00;;;;;;;;5019082;29;8822;-66
2023/04/09 04:45:25;;;;;;;;;70.60;57.20;;;;;;;;5065622;29;8869;-66
2023/04/09 04:48:01;;;;;;;;;76.00;59.40;;;;;;;;5049320;29;8813;-67
2023/04/09 04:50:32;;;;;;;;;66.00;52.40;;;;;;;;5065305;29;8802;-66
2023/04/09 04:53:22;;;;;;;;;63.20;52.20;;;;;;;;5049199;29;8814;-66
2023/04/09 04:55:54;;;;;;;;;70.40;57.00;;;;;;;;5065857;29;8913;-66
2023/04/09 04:58:44;;;;;;;;;67.20;50.40;;;;;;;;5035863;29;8903;-66
2023/04/09 05:01:15;;;;;;;;;58.80;48.00;;;;;;;;5033483;29;9577;-66
2023/04/09 05:03:47;;;;;;;;;64.80;51.60;;;;;;;;5065678;29;8810;-66
2023/04/09 05:06:35;;;;;;;;;61.00;50.80;;;;;;;;5048608;29;8960;-67
2023/04/09 05:09:11;;;;;;;;;60.60;51.00;;;;;;;;5048442;29;8848;-67
2023/04/09 05:11:50;;;;;;;;;60.20;50.00;;;;;;;;5032673;29;8832;-65
2023/04/09 05:14:25;;;;;;;;;62.00;52.20;;;;;;;;5048368;29;8957;-69
2023/04/09 05:16:56;;;;;;;;;63.20;52.20;;;;;;;;5037934;29;8842;-70
2023/04/09 05:19:32;;;;;;;;;64.00;50.20;;;;;;;;5053199;29;8850;-69
2023/04/09 05:22:07;;;;;;;;;62.60;50.00;;;;;;;;5028897;29;8845;-69
2023/04/09 05:24:38;;;;;;;;;62.80;51.40;;;;;;;;5046853;29;8809;-69
2023/04/09 05:27:10;;;;;;;;;70.00;54.80;;;;;;;;5031663;29;8794;-68
2023/04/09 05:29:41;;;;;;;;;59.80;51.00;;;;;;;;5064590;29;8798;-69
2023/04/09 05:32:13;;;;;;;;;63.00;53.00;;;;;;;;5045856;29;8797;-70
2023/04/09 05:34:44;;;;;;;;;62.40;51.40;;;;;;;;5045464;29;8817;-71
2023/04/09 05:37:15;;;;;;;;;57.20;49.20;;;;;;;;5044723;29;8824;-70
2023/04/09 05:39:51;;;;;;;;;54.80;46.00;;;;;;;;5028728;29;8893;-71
2023/04/09 05:42:23;;;;;;;;;46.80;40.20;;;;;;;;5029957;29;8816;-69
2023/04/09 05:44:57;;;;;;;;;31.40;30.60;;;;;;;;5029580;29;8832;-72
2023/04/09 05:47:28;;;;;;;;;26.00;26.00;;;;;;;;5043711;29;8834;-70
2023/04/09 05:50:07;;;;;;;;;25.20;24.40;;;;;;;;5046422;29;8889;-68
2023/04/09 05:52:39;;;;;;;;;20.60;19.40;;;;;;;;5013267;29;8808;-70
2023/04/09 05:55:10;;;;;;;;;30.20;29.80;;;;;;;;5038141;29;9641;-70
2023/04/09 05:57:51;;;;;;;;;33.60;32.80;;;;;;;;5031647;29;9589;-69
2023/04/09 06:00:22;;;;;;;;;36.00;30.80;;;;;;;;5044785;29;8889;-70
2023/04/09 06:02:54;;;;;;;;;34.80;34.00;;;;;;;;5015607;29;8830;-69
2023/04/09 06:05:25;;;;;;;;;34.00;32.60;;;;;;;;5063202;29;8798;-69
2023/04/09 06:07:56;;;;;;;;;30.60;30.60;;;;;;;;5031303;29;8798;-69
2023/04/09 06:10:27;;;;;;;;;17.00;17.00;;;;;;;;5043734;29;8840;-69
2023/04/09 06:12:59;;;;;;;;;56.40;47.00;;;;;;;;5021203;29;8804;-69
2023/04/09 06:15:30;;;;;;;;;39.80;36.80;;;;;;;;5032579;29;9518;-69
2023/04/09 06:18:01;;;;;;;;;31.20;31.00;;;;;;;;5064319;29;8995;-69
2023/04/09 06:20:33;;;;;;;;;18.20;18.20;;;;;;;;5033328;29;8881;-69
2023/04/09 06:23:05;;;;;;;;;16.20;15.40;;;;;;;;5035122;29;8850;-69
2023/04/09 06:25:36;;;;;;;;;19.20;19.20;;;;;;;;5051884;29;8810;-69
2023/04/09 06:28:06;;;;;;;;;15.00;15.00;;;;;;;;5052276;29;8821;-69
2023/04/09 06:30:37;;;;;;;;;17.25;17.00;;;;;;;;5052109;29;11563;-69
2023/04/09 06:33:27;;;;;;;;;10.20;10.20;;;;;;;;5054582;29;8952;-69
2023/04/09 06:35:58;;;;;;;;;13.75;13.75;;;;;;;;5051967;29;9004;-69
2023/04/09 06:38:28;;;;;;;;;12.00;12.00;;;;;;;;5036626;29;8793;-69
2023/04/09 06:40:59;;;;;;;;;10.75;10.75;;;;;;;;5051905;29;11428;-69
2023/04/09 06:43:30;;;;;;;;;10.80;10.80;;;;;;;;5036614;29;9612;-69
2023/04/09 06:46:02;;;;;;;;;9.80;9.80;;;;;;;;5051751;29;8801;-69
2023/04/09 06:48:33;;;;;;;;;10.00;10.00;;;;;;;;5036441;29;9502;-70
2023/04/09 06:51:06;;;;;;;;;8.60;8.60;;;;;;;;5051392;29;8794;-69
2023/04/09 06:53:55;;;;;;;;;13.00;12.20;;;;;;;;5054450;29;8856;-69
2023/04/09 06:56:26;;;;;;;;;12.50;12.00;;;;;;;;5051378;29;8833;-69
2023/04/09 06:58:57;;;;;;;;;9.50;8.00;;;;;;;;5051458;29;11489;-69
2023/04/09 07:01:46;;;;;;;;;6.40;6.40;;;;;;;;5054083;29;8790;-69
2023/04/09 07:04:17;;;;;;;;;7.25;6.75;;;;;;;;5068134;29;8821;-69
2023/04/09 07:06:48;;;;;;;;;7.25;7.25;;;;;;;;5051586;29;8809;-69
2023/04/09 07:09:19;;;;;;;;;5.75;5.75;;;;;;;;5035905;29;11421;-69
2023/04/09 07:11:50;;;;;;;;;4.00;3.75;;;;;;;;5020412;29;11405;-69
2023/04/09 07:14:21;;;;;;;;;3.00;3.00;;;;;;;;5035866;29;8897;-69
2023/04/09 07:16:52;;;;;;;;;4.00;4.00;;;;;;;;5020257;29;10488;-69
2023/04/09 07:19:23;;;;;;;;;11.25;11.25;;;;;;;;5035738;29;8802;-69
2023/04/09 07:21:54;;;;;;;;;10.75;10.75;;;;;;;;5067966;29;11533;-69
2023/04/09 07:24:25;;;;;;;;;5.25;5.25;;;;;;;;5050980;29;11425;-69
2023/04/09 07:26:56;;;;;;;;;14.40;13.60;;;;;;;;5068500;29;8824;-69
2023/04/09 07:29:27;;;;;;;;;5.33;5.33;;;;;;;;5051296;29;8790;-68
2023/04/09 07:31:59;;;;;;;;;4.67;4.67;;;;;;;;5050941;29;8813;-69
2023/04/09 07:34:30;;;;;;;;;3.40;3.40;;;;;;;;5034297;29;8829;-68
2023/04/09 07:37:19;;;;;;;;;3.00;3.00;;;;;;;;5038075;29;8824;-68
2023/04/09 07:39:51;;;;;;;;;3.00;3.00;;;;;;;;5050946;29;8798;-68
2023/04/09 07:42:22;;;;;;;;;13.00;12.20;;;;;;;;5067332;29;8790;-68
2023/04/09 07:44:53;;;;;;;;;4.00;4.00;;;;;;;;5067294;29;8798;-68
2023/04/09 07:47:24;;;;;;;;;3.40;3.40;;;;;;;;5050639;29;8786;-68
2023/04/09 07:49:55;;;;;;;;;8.00;8.00;;;;;;;;5067453;29;8794;-68
2023/04/09 07:52:45;;;;;;;;;12.80;12.80;;;;;;;;5050636;29;8949;-68
2023/04/09 07:55:18;;;;;;;;;3.40;3.40;;;;;;;;5050200;29;8801;-68
2023/04/09 07:57:50;;;;;;;;;3.60;3.60;;;;;;;;5067089;29;8782;-68
2023/04/09 08:00:39;;;;;;;;;4.40;4.40;;;;;;;;5053306;29;8782;-68
2023/04/09 08:03:11;;;;;;;;;3.00;3.00;;;;;;;;5067328;29;8877;-68
2023/04/09 08:05:42;;;;;;;;;11.80;11.80;;;;;;;;5050376;29;11425;-69
2023/04/09 08:08:13;;;;;;;;;4.00;4.00;;;;;;;;5050153;29;8794;-68
2023/04/09 08:10:44;;;;;;;;;2.75;2.00;;;;;;;;5050313;29;11447;-68
2023/04/09 08:13:14;;;;;;;;;3.00;3.00;;;;;;;;5019424;29;8816;-68
2023/04/09 08:15:45;;;;;;;;;3.00;3.00;;;;;;;;5050120;29;11446;-68
2023/04/09 08:18:16;;;;;;;;;8.00;8.00;;;;;;;;5034791;29;8786;-69
2023/04/09 08:20:47;;;;;;;;;3.00;3.00;;;;;;;;5034555;29;9490;-69
2023/04/09 08:23:18;;;;;;;;;6.50;6.50;;;;;;;;5050057;29;8864;-69
2023/04/09 08:25:49;;;;;;;;;1.33;1.33;;;;;;;;5050344;29;10289;-69
2023/04/09 08:28:20;;;;;;;;;6.20;6.20;;;;;;;;5034944;29;8913;-69
2023/04/09 08:30:51;;;;;;;;;5.40;5.40;;;;;;;;5066705;29;8818;-69
2023/04/09 08:33:22;;;;;;;;;4.00;4.00;;;;;;;;5034461;29;8825;-69
2023/04/09 08:35:53;;;;;;;;;6.67;6.67;;;;;;;;5035018;29;8778;-69
2023/04/09 08:38:24;;;;;;;;;6.50;6.50;;;;;;;;5034162;29;11384;-69
2023/04/09 08:40:55;;;;;;;;;3.00;3.00;;;;;;;;5066449;29;12174;-69
2023/04/09 08:43:27;;;;;;;;;3.33;3.33;;;;;;;;5066629;29;8790;-69
2023/04/09 08:45:58;;;;;;;;;2.00;2.00;;;;;;;;5049180;29;11409;-69
2023/04/09 08:48:29;;;;;;;;;6.00;6.00;;;;;;;;5066717;29;8800;-69
2023/04/09 08:51:00;;;;;;;;;16.75;16.50;;;;;;;;5049824;29;8794;-69
2023/04/09 08:53:31;;;;;;;;;7.00;7.00;;;;;;;;5049605;29;11061;-69
2023/04/09 08:56:02;;;;;;;;;4.25;4.25;;;;;;;;5033870;29;8833;-69
2023/04/09 08:58:33;;;;;;;;;5.80;5.80;;;;;;;;5066602;29;8786;-69
2023/04/09 09:01:04;;;;;;;;;6.75;6.75;;;;;;;;5049482;29;8808;-69
2023/04/09 09:03:50;;;;;;;;;2.25;2.25;;;;;;;;5049060;29;8822;-69
2023/04/09 09:06:25;;;;;;;;;1.00;1.00;;;;;;;;5049330;29;8782;-69
2023/04/09 09:09:07;;;;;;;;;3.00;3.00;;;;;;;;5049836;29;8782;-69
2023/04/09 09:11:45;;;;;;;;;1.25;1.25;;;;;;;;5066538;29;8786;-69
2023/04/09 09:14:19;;;;;;;;;5.50;5.25;;;;;;;;5049070;29;8806;-69
2023/04/09 09:16:56;;;;;;;;;4.00;3.75;;;;;;;;5049240;29;8821;-69
2023/04/09 09:19:29;;;;;;;;;4.00;4.00;;;;;;;;5066275;29;8808;-69
2023/04/09 09:22:01;;;;;;;;;2.00;2.00;;;;;;;;5049065;29;8778;-68
2023/04/09 09:24:51;;;;;;;;;1.67;1.67;;;;;;;;5065749;29;8813;-68
2023/04/09 09:27:39;;;;;;;;;3.75;3.75;;;;;;;;5065629;29;8786;-69
2023/04/09 09:30:28;;;;;;;;;7.00;7.00;;;;;;;;5065939;29;8892;-68
2023/04/09 09:33:06;;;;;;;;;3.75;3.75;;;;;;;;5033339;29;9483;-68
2023/04/09 09:35:50;;;;;;;;;8.25;8.00;;;;;;;;5033584;29;8786;-68
2023/04/09 09:38:21;;;;;;;;;3.75;3.75;;;;;;;;5033291;29;8831;-69
2023/04/09 09:40:52;;;;;;;;;2.25;2.25;;;;;;;;5033112;29;8842;-68
2023/04/09 09:43:23;;;;;;;;;1.00;1.00;;;;;;;;5065379;29;8810;-69
2023/04/09 09:46:12;;;;;;;;;3.00;3.00;;;;;;;;5048440;29;9589;-69
2023/04/09 09:48:45;;;;;;;;;4.00;4.00;;;;;;;;5033181;29;8802;-69
2023/04/09 09:51:16;;;;;;;;;2.00;2.00;;;;;;;;5048603;29;8929;-69
2023/04/09 09:54:07;;;;;;;;;8.75;8.50;;;;;;;;5048733;29;8821;-69
2023/04/09 09:57:00;;;;;;;;;3.00;3.00;;;;;;;;5033493;29;8837;-68
2023/04/09 09:59:33;;;;;;;;;3.00;3.00;;;;;;;;5029091;29;8872;-68
2023/04/09 10:02:25;;;;;;;;;1.25;1.25;;;;;;;;5045707;29;8834;-69
2023/04/09 10:04:59;;;;;;;;;1.25;1.25;;;;;;;;5029119;29;8820;-70
2023/04/09 10:07:31;;;;;;;;;2.75;2.75;;;;;;;;5013569;29;8820;-69
2023/04/09 10:10:04;;;;;;;;;7.00;7.00;;;;;;;;5013595;29;9562;-69
2023/04/09 10:12:35;;;;;;;;;1.75;1.75;;;;;;;;5029125;29;8813;-70
2023/04/09 10:15:08;;;;;;;;;4.00;4.00;;;;;;;;5013615;29;8840;-69
2023/04/09 10:17:39;;;;;;;;;3.00;3.00;;;;;;;;5029199;29;9359;-69
2023/04/09 10:20:35;;;;;;;;;5.75;5.75;;;;;;;;5031924;29;8793;-69
2023/04/09 10:23:10;;;;;;;;;3.00;3.00;;;;;;;;5045818;29;8809;-69
2023/04/09 10:25:41;;;;;;;;;4.00;4.00;;;;;;;;5045631;29;8822;-69
2023/04/09 10:28:17;;;;;;;;;3.75;3.75;;;;;;;;5029175;29;8851;-69
2023/04/09 10:30:48;;;;;;;;;30.00;27.60;;;;;;;;5014020;29;8812;-69
2023/04/09 10:33:25;;;;;;;;;2.00;2.00;;;;;;;;5028861;29;8805;-69
2023/04/09 10:36:03;;;;;;;;;44.20;37.60;;;;;;;;5029009;29;8805;-67
2023/04/09 10:38:52;;;;;;;;;61.40;46.40;;;;;;;;5045182;29;8805;-69
2023/04/09 10:41:28;;;;;;;;;3.33;3.33;;;;;;;;5028835;29;8805;-67
2023/04/09 10:43:59;;;;;;;;;4.00;4.00;;;;;;;;5029005;29;8824;-70
2023/04/09 10:46:35;;;;;;;;;5.00;3.50;;;;;;;;5045320;29;8886;-68
2023/04/09 10:49:15;;;;;;;;;5.75;5.25;;;;;;;;5029208;29;9565;-67
2023/04/09 10:52:14;;;;;;;;;6.25;6.25;;;;;;;;5028624;29;8812;-68
2023/04/09 10:54:45;;;;;;;;;6.00;6.00;;;;;;;;5011691;29;9520;-68
2023/04/09 10:57:21;;;;;;;;;4.00;4.00;;;;;;;;5029881;29;8949;-68
2023/04/09 10:59:53;;;;;;;;;1.75;1.75;;;;;;;;5064969;29;9624;-68
2023/04/09 11:02:30;;;;;;;;;2.75;2.75;;;;;;;;5047843;29;8792;-70
2023/04/09 11:05:10;;;;;;;;;14.40;14.40;;;;;;;;5047387;29;8820;-68
2023/04/09 11:07:44;;;;;;;;;5.50;5.50;;;;;;;;5047992;29;8807;-68
2023/04/09 11:10:14;;;;;;;;;29.00;27.40;;;;;;;;5048996;29;8828;-69
2023/04/09 11:12:46;;;;;;;;;2.00;2.00;;;;;;;;5033093;29;8827;-69
2023/04/09 11:15:17;;;;;;;;;2.75;2.75;;;;;;;;5044738;29;8864;-68
2023/04/09 11:17:49;;;;;;;;;3.50;3.50;;;;;;;;5064117;29;8832;-68
2023/04/09 11:20:20;;;;;;;;;3.00;3.00;;;;;;;;5051515;29;8820;-68
2023/04/09 11:22:52;;;;;;;;;4.75;4.75;;;;;;;;5036003;29;8903;-68
2023/04/09 11:25:25;;;;;;;;;9.25;9.00;;;;;;;;5050952;29;8816;-69
2023/04/09 11:27:56;;;;;;;;;5.50;5.50;;;;;;;;5050605;29;8840;-68
2023/04/09 11:30:27;;;;;;;;;2.00;2.00;;;;;;;;5050696;29;8962;-68
2023/04/09 11:32:58;;;;;;;;;26.40;26.00;;;;;;;;5067092;29;8824;-68
2023/04/09 11:35:29;;;;;;;;;12.67;12.33;;;;;;;;5067289;29;8952;-69
2023/04/09 11:38:00;;;;;;;;;9.00;8.67;;;;;;;;5049465;29;8873;-68
2023/04/09 11:40:31;;;;;;;;;5.50;5.25;;;;;;;;5050848;29;9757;-68
2023/04/09 11:43:02;;;;;;;;;5.75;5.75;;;;;;;;5050564;29;8892;-68
2023/04/09 11:45:33;;;;;;;;;20.00;18.20;;;;;;;;5050489;29;8828;-68
2023/04/09 11:48:04;;;;;;;;;8.00;8.00;;;;;;;;5050584;29;8824;-68
2023/04/09 11:50:36;;;;;;;;;2.00;2.00;;;;;;;;5067260;29;11683;-68
2023/04/09 11:53:20;;;;;;;;;3.75;3.75;;;;;;;;5050784;29;9520;-68
2023/04/09 11:55:52;;;;;;;;;3.00;3.00;;;;;;;;5045281;29;8835;-68
2023/04/09 11:58:24;;;;;;;;;3.50;3.50;;;;;;;;5031358;29;8832;-68
2023/04/09 12:01:14;;;;;;;;;3.50;3.50;;;;;;;;5048464;29;8808;-68
2023/04/09 12:03:50;;;;;;;;;5.00;5.00;;;;;;;;5048033;29;8820;-68
2023/04/09 12:06:23;;;;;;;;;9.00;9.00;;;;;;;;5031291;29;8834;-68
2023/04/09 12:08:58;;;;;;;;;10.75;10.75;;;;;;;;5015688;29;8883;-68
2023/04/09 12:11:30;;;;;;;;;3.50;3.50;;;;;;;;5000494;29;8823;-68
2023/04/09 12:14:20;;;;;;;;;3.25;3.25;;;;;;;;5047588;29;8922;-68
2023/04/09 12:16:51;;;;;;;;;2.00;2.00;;;;;;;;5031060;29;8828;-68
2023/04/09 12:19:24;;;;;;;;;2.00;2.00;;;;;;;;5015216;29;8828;-68
2023/04/09 12:21:57;;;;;;;;;2.00;2.00;;;;;;;;5015373;29;8820;-68
2023/04/09 12:24:28;;;;;;;;;4.25;4.25;;;;;;;;5030666;29;8800;-68
2023/04/09 12:26:58;;;;;;;;;4.00;4.00;;;;;;;;5031400;29;8828;-68
2023/04/09 12:29:48;;;;;;;;;3.50;3.50;;;;;;;;5047525;29;8809;-68
2023/04/09 12:32:38;;;;;;;;;2.00;2.00;;;;;;;;5017782;29;8821;-68
2023/04/09 12:35:08;;;;;;;;;2.50;2.50;;;;;;;;5030317;29;8813;-68
2023/04/09 12:37:39;;;;;;;;;5.33;5.33;;;;;;;;5030809;29;8824;-68
2023/04/09 12:40:12;;;;;;;;;4.25;4.00;;;;;;;;5047234;29;11548;-68
2023/04/09 12:42:45;;;;;;;;;0.50;0.50;;;;;;;;5047214;29;8820;-68
2023/04/09 12:45:18;;;;;;;;;1.50;1.50;;;;;;;;5029018;29;8828;-70
2023/04/09 12:47:49;;;;;;;;;9.00;9.00;;;;;;;;5029743;29;8824;-69
2023/04/09 12:50:38;;;;;;;;;7.25;7.25;;;;;;;;5033263;29;8800;-70
2023/04/09 12:53:47;;;;;;;;;8.00;7.75;;;;;;;;5032732;29;9575;-69
2023/04/09 12:56:19;;;;;;;;;10.00;10.00;;;;;;;;5036554;29;8881;-69
2023/04/09 12:59:10;;;;;;;;;8.25;8.25;;;;;;;;5049832;29;10747;-69
2023/04/09 13:01:41;;;;;;;;;4.50;4.50;;;;;;;;5048321;29;8944;-69
2023/04/09 13:04:12;;;;;;;;;24.00;22.80;;;;;;;;5065310;29;8829;-69
2023/04/09 13:06:43;;;;;;;;;4.67;4.67;;;;;;;;5049132;29;8834;-69
2023/04/09 13:09:14;;;;;;;;;10.00;10.00;;;;;;;;5049318;29;8830;-70
2023/04/09 13:12:05;;;;;;;;;4.00;4.00;;;;;;;;5051919;29;8857;-70
2023/04/09 13:14:38;;;;;;;;;12.50;12.50;;;;;;;;5033149;29;8859;-70
2023/04/09 13:17:29;;;;;;;;;2.50;2.50;;;;;;;;5019682;29;8848;-68
2023/04/09 13:20:00;;;;;;;;;4.00;4.00;;;;;;;;5038833;29;8860;-69
2023/04/09 13:22:52;;;;;;;;;17.60;17.60;;;;;;;;5048978;29;8849;-70
2023/04/09 13:25:23;;;;;;;;;5.67;5.67;;;;;;;;5044809;29;8834;-70
2023/04/09 13:27:54;;;;;;;;;1.00;1.00;;;;;;;;5049116;29;11526;-70
2023/04/09 13:30:46;;;;;;;;;4.00;4.00;;;;;;;;5025013;29;8967;-69
2023/04/09 13:33:56;;;;;;;;;7.75;7.25;;;;;;;;5051289;29;8865;-69
2023/04/09 13:36:30;;;;;;;;;1.75;1.50;;;;;;;;5065390;29;8821;-69
2023/04/09 13:39:03;;;;;;;;;2.00;2.00;;;;;;;;5048645;29;8845;-70
2023/04/09 13:41:54;;;;;;;;;9.75;9.75;;;;;;;;5037836;29;8790;-70
2023/04/09 13:44:46;;;;;;;;;5.00;5.00;;;;;;;;5025199;29;8846;-69
2023/04/09 13:47:35;;;;;;;;;2.25;2.25;;;;;;;;5051359;29;8789;-70
2023/04/09 13:50:25;;;;;;;;;1.50;1.50;;;;;;;;5038272;29;8805;-69
2023/04/09 13:53:15;;;;;;;;;1.00;1.00;;;;;;;;5024816;29;8806;-70
2023/04/09 13:56:05;;;;;;;;;13.75;13.75;;;;;;;;5051827;29;8825;-69
2023/04/09 13:58:54;;;;;;;;;8.00;8.00;;;;;;;;5070548;29;8795;-71
2023/04/09 14:01:26;;;;;;;;;6.00;6.00;;;;;;;;5059631;29;8937;-69
2023/04/09 14:03:59;;;;;;;;;10.00;10.00;;;;;;;;5048490;29;9561;-69
2023/04/09 14:06:48;;;;;;;;;7.50;7.50;;;;;;;;5050557;29;8813;-71
2023/04/09 14:09:20;;;;;;;;;9.50;9.50;;;;;;;;5033105;29;8828;-71
2023/04/09 14:11:50;;;;;;;;;20.00;18.00;;;;;;;;5047997;29;8813;-71
2023/04/09 14:14:21;;;;;;;;;21.50;20.75;;;;;;;;5032606;29;8920;-71
2023/04/09 14:16:52;;;;;;;;;14.80;14.80;;;;;;;;5032621;29;8987;-70
2023/04/09 14:19:23;;;;;;;;;12.00;12.00;;;;;;;;5048018;29;8824;-70
2023/04/09 14:21:54;;;;;;;;;11.25;11.00;;;;;;;;5032507;29;8817;-70
2023/04/09 14:24:25;;;;;;;;;11.67;11.67;;;;;;;;5047633;29;8845;-70
2023/04/09 14:26:56;;;;;;;;;19.00;19.00;;;;;;;;5047377;29;11630;-70
2023/04/09 14:29:27;;;;;;;;;20.00;19.00;;;;;;;;5064269;29;8818;-70
2023/04/09 14:31:59;;;;;;;;;25.75;25.25;;;;;;;;5047250;29;11643;-70
2023/04/09 14:34:30;;;;;;;;;23.40;23.40;;;;;;;;5064207;29;9420;-70
2023/04/09 14:37:01;;;;;;;;;21.60;21.60;;;;;;;;5047645;29;9573;-70
2023/04/09 14:39:32;;;;;;;;;29.80;28.60;;;;;;;;5064207;29;8846;-70
2023/04/09 14:42:03;;;;;;;;;11.00;10.25;;;;;;;;5031765;29;8822;-70
2023/04/09 14:44:34;;;;;;;;;15.33;15.00;;;;;;;;5050480;29;8837;-70
2023/04/09 14:47:05;;;;;;;;;13.00;13.00;;;;;;;;5049908;29;8825;-70
2023/04/09 14:49:36;;;;;;;;;11.00;11.00;;;;;;;;5049752;29;8842;-70
2023/04/09 14:52:07;;;;;;;;;12.33;12.33;;;;;;;;5049998;29;8856;-69
2023/04/09 14:54:38;;;;;;;;;28.20;26.60;;;;;;;;5065617;29;11771;-69
2023/04/09 14:57:09;;;;;;;;;33.25;31.50;;;;;;;;5064072;29;8864;-70
2023/04/09 14:59:40;;;;;;;;;38.25;35.00;;;;;;;;5066355;29;8845;-72
2023/04/09 15:02:11;;;;;;;;;55.50;45.00;;;;;;;;5049757;29;8978;-70
2023/04/09 15:04:42;;;;;;;;;69.40;53.60;;;;;;;;5065661;29;8818;-69
2023/04/09 15:07:13;;;;;;;;;54.50;44.25;;;;;;;;5049494;29;8907;-71
2023/04/09 15:09:44;;;;;;;;;49.50;42.00;;;;;;;;5066593;29;11529;-69
2023/04/09 15:12:15;;;;;;;;;50.20;41.20;;;;;;;;5049357;29;12304;-69
2023/04/09 15:14:45;;;;;;;;;37.75;34.00;;;;;;;;5033853;29;8850;-69
2023/04/09 15:17:35;;;;;;;;;36.40;33.00;;;;;;;;5065982;29;8838;-68
2023/04/09 15:20:06;;;;;;;;;49.40;41.60;;;;;;;;5066285;29;8944;-68
2023/04/09 15:22:37;;;;;;;;;55.60;46.00;;;;;;;;5066162;29;9552;-69
2023/04/09 15:25:08;;;;;;;;;51.40;44.20;;;;;;;;5058442;29;8798;-67